sensor_id;sensor_type;location;lat;lon;timestamp;temperature;humidity
52495;DHT22;38405;53.212;5.660;2024-03-07T00:00:45;2.70;99.90
52495;DHT22;38405;53.212;5.660;2024-03-07T00:03:11;2.70;99.90
52495;DHT22;38405;53.212;5.660;2024-03-07T00:05:36;2.70;99.90
52495;DHT22;38405;53.212;5.660;2024-03-07T00:08:02;2.80;99.90
52495;DHT22;38405;53.212;5.660;2024-03-07T00:10:28;2.80;99.90
52495;DHT22;38405;53.212;5.660;2024-03-07T00:12:53;2.70;99.90
52495;DHT22;38405;53.212;5.660;2024-03-07T00:15:19;2.70;99.90
52495;DHT22;38405;53.212;5.660;2024-03-07T00:17:46;2.70;99.90
52495;DHT22;38405;53.212;5.660;2024-03-07T00:20:12;2.70;99.90
52495;DHT22;38405;53.212;5.660;2024-03-07T00:22:41;2.60;99.90
52495;DHT22;38405;53.212;5.660;2024-03-07T00:25:07;2.60;99.90
52495;DHT22;38405;53.212;5.660;2024-03-07T00:27:35;2.70;99.90
52495;DHT22;38405;53.212;5.660;2024-03-07T00:30:05;2.50;99.90
52495;DHT22;38405;53.212;5.660;2024-03-07T00:32:31;2.60;99.90
52495;DHT22;38405;53.212;5.660;2024-03-07T00:35:01;2.60;99.90
52495;DHT22;38405;53.212;5.660;2024-03-07T00:37:29;2.60;99.90
52495;DHT22;38405;53.212;5.660;2024-03-07T00:39:55;2.80;99.90
52495;DHT22;38405;53.212;5.660;2024-03-07T00:42:21;3.10;99.90
52495;DHT22;38405;53.212;5.660;2024-03-07T00:44:47;2.70;99.90
52495;DHT22;38405;53.212;5.660;2024-03-07T00:47:15;2.70;99.90
52495;DHT22;38405;53.212;5.660;2024-03-07T00:49:43;2.60;99.90
52495;DHT22;38405;53.212;5.660;2024-03-07T00:52:09;2.60;99.90
52495;DHT22;38405;53.212;5.660;2024-03-07T00:54:35;2.50;99.90
52495;DHT22;38405;53.212;5.660;2024-03-07T00:57:01;2.50;99.90
52495;DHT22;38405;53.212;5.660;2024-03-07T00:59:27;2.50;99.90
52495;DHT22;38405;53.212;5.660;2024-03-07T01:01:52;2.60;99.90
52495;DHT22;38405;53.212;5.660;2024-03-07T01:04:19;2.60;99.90
52495;DHT22;38405;53.212;5.660;2024-03-07T01:06:45;2.60;99.90
52495;DHT22;38405;53.212;5.660;2024-03-07T01:09:11;2.60;99.90
52495;DHT22;38405;53.212;5.660;2024-03-07T01:11:42;2.60;99.90
52495;DHT22;38405;53.212;5.660;2024-03-07T01:14:08;2.50;99.90
52495;DHT22;38405;53.212;5.660;2024-03-07T01:16:33;2.60;99.90
52495;DHT22;38405;53.212;5.660;2024-03-07T01:19:00;2.60;99.90
52495;DHT22;38405;53.212;5.660;2024-03-07T01:21:26;3.10;99.90
52495;DHT22;38405;53.212;5.660;2024-03-07T01:23:51;2.50;99.90
52495;DHT22;38405;53.212;5.660;2024-03-07T01:26:17;2.70;99.90
52495;DHT22;38405;53.212;5.660;2024-03-07T01:28:43;2.70;99.90
52495;DHT22;38405;53.212;5.660;2024-03-07T01:31:08;2.70;99.90
52495;DHT22;38405;53.212;5.660;2024-03-07T01:33:35;2.70;99.90
52495;DHT22;38405;53.212;5.660;2024-03-07T01:36:01;2.60;99.90
52495;DHT22;38405;53.212;5.660;2024-03-07T01:38:27;2.50;99.90
52495;DHT22;38405;53.212;5.660;2024-03-07T01:40:52;2.70;99.90
52495;DHT22;38405;53.212;5.660;2024-03-07T01:43:20;2.70;99.90
52495;DHT22;38405;53.212;5.660;2024-03-07T01:45:46;2.50;99.90
52495;DHT22;38405;53.212;5.660;2024-03-07T01:48:16;2.50;99.90
52495;DHT22;38405;53.212;5.660;2024-03-07T01:50:45;2.60;99.90
52495;DHT22;38405;53.212;5.660;2024-03-07T01:53:12;2.70;99.90
52495;DHT22;38405;53.212;5.660;2024-03-07T01:55:39;2.90;99.90
52495;DHT22;38405;53.212;5.660;2024-03-07T01:58:07;2.60;99.90
52495;DHT22;38405;53.212;5.660;2024-03-07T02:00:34;2.60;99.90
52495;DHT22;38405;53.212;5.660;2024-03-07T02:02:59;2.50;99.90
52495;DHT22;38405;53.212;5.660;2024-03-07T02:05:25;2.60;99.90
52495;DHT22;38405;53.212;5.660;2024-03-07T02:07:51;2.40;99.90
52495;DHT22;38405;53.212;5.660;2024-03-07T02:10:16;2.40;99.90
52495;DHT22;38405;53.212;5.660;2024-03-07T02:12:43;2.70;99.90
52495;DHT22;38405;53.212;5.660;2024-03-07T02:15:10;2.40;99.90
52495;DHT22;38405;53.212;5.660;2024-03-07T02:17:36;2.50;99.90
52495;DHT22;38405;53.212;5.660;2024-03-07T02:20:02;2.50;99.90
52495;DHT22;38405;53.212;5.660;2024-03-07T02:22:29;2.30;99.90
52495;DHT22;38405;53.212;5.660;2024-03-07T02:24:55;2.30;99.90
52495;DHT22;38405;53.212;5.660;2024-03-07T02:27:21;2.30;99.90
52495;DHT22;38405;53.212;5.660;2024-03-07T02:29:46;2.30;99.90
52495;DHT22;38405;53.212;5.660;2024-03-07T02:32:12;2.20;99.90
52495;DHT22;38405;53.212;5.660;2024-03-07T02:34:38;2.40;99.90
52495;DHT22;38405;53.212;5.660;2024-03-07T02:37:04;2.50;99.90
52495;DHT22;38405;53.212;5.660;2024-03-07T02:39:30;2.30;99.90
52495;DHT22;38405;53.212;5.660;2024-03-07T02:41:55;2.30;99.90
52495;DHT22;38405;53.212;5.660;2024-03-07T02:44:21;2.20;99.90
52495;DHT22;38405;53.212;5.660;2024-03-07T02:46:47;2.20;99.90
52495;DHT22;38405;53.212;5.660;2024-03-07T02:49:13;2.10;99.90
52495;DHT22;38405;53.212;5.660;2024-03-07T02:51:40;2.10;99.90
52495;DHT22;38405;53.212;5.660;2024-03-07T02:54:07;2.10;99.90
52495;DHT22;38405;53.212;5.660;2024-03-07T02:56:33;2.00;99.90
52495;DHT22;38405;53.212;5.660;2024-03-07T02:58:58;2.20;99.90
52495;DHT22;38405;53.212;5.660;2024-03-07T03:01:24;2.00;99.90
52495;DHT22;38405;53.212;5.660;2024-03-07T03:03:50;2.00;99.90
52495;DHT22;38405;53.212;5.660;2024-03-07T03:06:15;2.00;99.90
52495;DHT22;38405;53.212;5.660;2024-03-07T03:08:41;2.00;99.90
52495;DHT22;38405;53.212;5.660;2024-03-07T03:11:06;2.00;99.90
52495;DHT22;38405;53.212;5.660;2024-03-07T03:13:37;2.00;99.90
52495;DHT22;38405;53.212;5.660;2024-03-07T03:16:04;1.90;99.90
52495;DHT22;38405;53.212;5.660;2024-03-07T03:18:32;1.90;99.90
52495;DHT22;38405;53.212;5.660;2024-03-07T03:21:02;2.10;99.90
52495;DHT22;38405;53.212;5.660;2024-03-07T03:23:28;2.00;99.90
52495;DHT22;38405;53.212;5.660;2024-03-07T03:25:54;1.90;99.90
52495;DHT22;38405;53.212;5.660;2024-03-07T03:28:20;1.90;99.90
52495;DHT22;38405;53.212;5.660;2024-03-07T03:30:47;1.90;99.90
52495;DHT22;38405;53.212;5.660;2024-03-07T03:33:13;1.90;99.90
52495;DHT22;38405;53.212;5.660;2024-03-07T03:35:40;1.90;99.90
52495;DHT22;38405;53.212;5.660;2024-03-07T03:38:07;1.80;99.90
52495;DHT22;38405;53.212;5.660;2024-03-07T03:40:32;1.80;99.90
52495;DHT22;38405;53.212;5.660;2024-03-07T03:42:58;1.60;99.90
52495;DHT22;38405;53.212;5.660;2024-03-07T03:45:24;1.60;99.90
52495;DHT22;38405;53.212;5.660;2024-03-07T03:47:51;1.60;99.90
52495;DHT22;38405;53.212;5.660;2024-03-07T03:50:17;1.70;99.90
52495;DHT22;38405;53.212;5.660;2024-03-07T03:52:44;1.60;99.90
52495;DHT22;38405;53.212;5.660;2024-03-07T03:55:10;1.60;99.90
52495;DHT22;38405;53.212;5.660;2024-03-07T03:57:38;1.60;99.90
52495;DHT22;38405;53.212;5.660;2024-03-07T04:00:05;1.60;99.90
52495;DHT22;38405;53.212;5.660;2024-03-07T04:02:37;1.60;99.90
52495;DHT22;38405;53.212;5.660;2024-03-07T04:05:03;1.60;99.90
52495;DHT22;38405;53.212;5.660;2024-03-07T04:07:29;1.50;99.90
52495;DHT22;38405;53.212;5.660;2024-03-07T04:09:56;1.40;99.90
52495;DHT22;38405;53.212;5.660;2024-03-07T04:12:23;1.50;99.90
52495;DHT22;38405;53.212;5.660;2024-03-07T04:14:52;1.50;99.90
52495;DHT22;38405;53.212;5.660;2024-03-07T04:17:18;1.30;99.90
52495;DHT22;38405;53.212;5.660;2024-03-07T04:19:46;1.40;99.90
52495;DHT22;38405;53.212;5.660;2024-03-07T04:22:11;1.30;99.90
52495;DHT22;38405;53.212;5.660;2024-03-07T04:24:37;1.40;99.90
52495;DHT22;38405;53.212;5.660;2024-03-07T04:27:04;1.40;99.90
52495;DHT22;38405;53.212;5.660;2024-03-07T04:29:31;1.30;99.90
52495;DHT22;38405;53.212;5.660;2024-03-07T04:31:57;1.40;99.90
52495;DHT22;38405;53.212;5.660;2024-03-07T04:34:23;1.40;99.90
52495;DHT22;38405;53.212;5.660;2024-03-07T04:36:49;1.30;99.90
52495;DHT22;38405;53.212;5.660;2024-03-07T04:39:14;1.30;99.90
52495;DHT22;38405;53.212;5.660;2024-03-07T04:41:51;1.30;99.90
52495;DHT22;38405;53.212;5.660;2024-03-07T04:44:18;1.20;99.90
52495;DHT22;38405;53.212;5.660;2024-03-07T04:46:50;1.20;99.90
52495;DHT22;38405;53.212;5.660;2024-03-07T04:49:21;1.20;99.90
52495;DHT22;38405;53.212;5.660;2024-03-07T04:51:47;1.20;99.90
52495;DHT22;38405;53.212;5.660;2024-03-07T04:54:12;1.20;99.90
52495;DHT22;38405;53.212;5.660;2024-03-07T04:56:38;1.20;99.90
52495;DHT22;38405;53.212;5.660;2024-03-07T04:59:03;1.20;99.90
52495;DHT22;38405;53.212;5.660;2024-03-07T05:01:29;1.20;99.90
52495;DHT22;38405;53.212;5.660;2024-03-07T05:03:56;1.30;99.90
52495;DHT22;38405;53.212;5.660;2024-03-07T05:06:22;1.10;99.90
52495;DHT22;38405;53.212;5.660;2024-03-07T05:08:47;1.20;99.90
52495;DHT22;38405;53.212;5.660;2024-03-07T05:11:13;1.10;99.90
52495;DHT22;38405;53.212;5.660;2024-03-07T05:13:38;1.10;99.90
52495;DHT22;38405;53.212;5.660;2024-03-07T05:16:07;1.20;99.90
52495;DHT22;38405;53.212;5.660;2024-03-07T05:18:33;1.10;99.90
52495;DHT22;38405;53.212;5.660;2024-03-07T05:20:59;1.10;99.90
52495;DHT22;38405;53.212;5.660;2024-03-07T05:23:44;1.00;99.90
52495;DHT22;38405;53.212;5.660;2024-03-07T05:26:10;1.00;99.90
52495;DHT22;38405;53.212;5.660;2024-03-07T05:28:36;1.10;99.90
52495;DHT22;38405;53.212;5.660;2024-03-07T05:31:02;1.10;99.90
52495;DHT22;38405;53.212;5.660;2024-03-07T05:33:29;1.00;99.90
52495;DHT22;38405;53.212;5.660;2024-03-07T05:35:55;1.00;99.90
52495;DHT22;38405;53.212;5.660;2024-03-07T05:38:39;0.90;99.90
52495;DHT22;38405;53.212;5.660;2024-03-07T05:41:05;0.90;99.90
52495;DHT22;38405;53.212;5.660;2024-03-07T05:43:30;1.10;99.90
52495;DHT22;38405;53.212;5.660;2024-03-07T05:45:57;1.10;99.90
52495;DHT22;38405;53.212;5.660;2024-03-07T05:48:26;0.90;99.90
52495;DHT22;38405;53.212;5.660;2024-03-07T05:50:51;0.90;99.90
52495;DHT22;38405;53.212;5.660;2024-03-07T05:53:18;0.90;99.90
52495;DHT22;38405;53.212;5.660;2024-03-07T05:55:43;1.00;99.90
52495;DHT22;38405;53.212;5.660;2024-03-07T05:58:11;1.10;99.90
52495;DHT22;38405;53.212;5.660;2024-03-07T06:00:36;1.00;99.90
52495;DHT22;38405;53.212;5.660;2024-03-07T06:03:04;0.90;99.90
52495;DHT22;38405;53.212;5.660;2024-03-07T06:05:30;1.00;99.90
52495;DHT22;38405;53.212;5.660;2024-03-07T06:07:56;0.90;99.90
52495;DHT22;38405;53.212;5.660;2024-03-07T06:10:22;0.90;99.90
52495;DHT22;38405;53.212;5.660;2024-03-07T06:12:52;1.00;99.90
52495;DHT22;38405;53.212;5.660;2024-03-07T06:15:18;1.00;99.90
52495;DHT22;38405;53.212;5.660;2024-03-07T06:17:44;0.90;99.90
52495;DHT22;38405;53.212;5.660;2024-03-07T06:20:12;1.00;99.90
52495;DHT22;38405;53.212;5.660;2024-03-07T06:22:51;1.00;99.90
52495;DHT22;38405;53.212;5.660;2024-03-07T06:25:20;1.20;99.90
52495;DHT22;38405;53.212;5.660;2024-03-07T06:27:58;1.10;99.90
52495;DHT22;38405;53.212;5.660;2024-03-07T06:30:24;1.00;99.90
52495;DHT22;38405;53.212;5.660;2024-03-07T06:32:51;1.00;99.90
52495;DHT22;38405;53.212;5.660;2024-03-07T06:35:17;1.10;99.90
52495;DHT22;38405;53.212;5.660;2024-03-07T06:37:45;1.10;99.90
52495;DHT22;38405;53.212;5.660;2024-03-07T06:40:11;1.20;99.90
52495;DHT22;38405;53.212;5.660;2024-03-07T06:42:36;1.10;99.90
52495;DHT22;38405;53.212;5.660;2024-03-07T06:45:05;1.10;99.90
52495;DHT22;38405;53.212;5.660;2024-03-07T06:47:31;1.10;99.90
52495;DHT22;38405;53.212;5.660;2024-03-07T06:49:57;1.90;99.90
52495;DHT22;38405;53.212;5.660;2024-03-07T06:52:23;1.20;99.90
52495;DHT22;38405;53.212;5.660;2024-03-07T06:54:48;1.20;99.90
52495;DHT22;38405;53.212;5.660;2024-03-07T06:57:17;1.30;99.90
52495;DHT22;38405;53.212;5.660;2024-03-07T06:59:43;1.40;99.90
52495;DHT22;38405;53.212;5.660;2024-03-07T07:02:09;1.30;99.90
52495;DHT22;38405;53.212;5.660;2024-03-07T07:04:35;1.40;99.90
52495;DHT22;38405;53.212;5.660;2024-03-07T07:07:13;1.40;99.90
52495;DHT22;38405;53.212;5.660;2024-03-07T07:09:39;1.60;99.90
52495;DHT22;38405;53.212;5.660;2024-03-07T07:12:05;1.60;99.90
52495;DHT22;38405;53.212;5.660;2024-03-07T07:14:31;1.80;99.90
52495;DHT22;38405;53.212;5.660;2024-03-07T07:16:57;1.70;99.90
52495;DHT22;38405;53.212;5.660;2024-03-07T07:19:24;2.40;99.90
52495;DHT22;38405;53.212;5.660;2024-03-07T07:21:50;2.00;99.90
52495;DHT22;38405;53.212;5.660;2024-03-07T07:24:19;2.00;99.90
52495;DHT22;38405;53.212;5.660;2024-03-07T07:26:47;2.00;99.90
52495;DHT22;38405;53.212;5.660;2024-03-07T07:29:14;2.30;99.90
52495;DHT22;38405;53.212;5.660;2024-03-07T07:31:40;2.30;99.90
52495;DHT22;38405;53.212;5.660;2024-03-07T07:34:06;2.40;99.90
52495;DHT22;38405;53.212;5.660;2024-03-07T07:36:31;2.50;99.90
52495;DHT22;38405;53.212;5.660;2024-03-07T07:38:57;2.50;99.90
52495;DHT22;38405;53.212;5.660;2024-03-07T07:41:23;2.60;99.90
52495;DHT22;38405;53.212;5.660;2024-03-07T07:43:49;2.60;99.90
52495;DHT22;38405;53.212;5.660;2024-03-07T07:46:16;2.80;99.90
52495;DHT22;38405;53.212;5.660;2024-03-07T07:48:42;3.30;99.90
52495;DHT22;38405;53.212;5.660;2024-03-07T07:51:08;2.90;99.90
52495;DHT22;38405;53.212;5.660;2024-03-07T07:53:34;2.80;99.90
52495;DHT22;38405;53.212;5.660;2024-03-07T07:56:00;3.10;99.90
52495;DHT22;38405;53.212;5.660;2024-03-07T07:58:26;3.10;99.90
52495;DHT22;38405;53.212;5.660;2024-03-07T08:00:52;3.20;99.90
52495;DHT22;38405;53.212;5.660;2024-03-07T08:03:17;3.40;99.90
52495;DHT22;38405;53.212;5.660;2024-03-07T08:05:44;3.30;99.90
52495;DHT22;38405;53.212;5.660;2024-03-07T08:08:12;3.50;99.90
52495;DHT22;38405;53.212;5.660;2024-03-07T08:10:41;3.50;99.90
52495;DHT22;38405;53.212;5.660;2024-03-07T08:13:07;3.60;99.90
52495;DHT22;38405;53.212;5.660;2024-03-07T08:15:36;3.50;99.90
52495;DHT22;38405;53.212;5.660;2024-03-07T08:18:02;3.60;99.90
52495;DHT22;38405;53.212;5.660;2024-03-07T08:20:32;3.80;99.90
52495;DHT22;38405;53.212;5.660;2024-03-07T08:22:58;3.70;99.90
52495;DHT22;38405;53.212;5.660;2024-03-07T08:25:26;3.80;99.90
52495;DHT22;38405;53.212;5.660;2024-03-07T08:27:57;3.90;99.90
52495;DHT22;38405;53.212;5.660;2024-03-07T08:30:24;4.10;99.90
52495;DHT22;38405;53.212;5.660;2024-03-07T08:32:51;4.00;99.90
52495;DHT22;38405;53.212;5.660;2024-03-07T08:35:18;4.20;99.90
52495;DHT22;38405;53.212;5.660;2024-03-07T08:37:45;4.20;99.90
52495;DHT22;38405;53.212;5.660;2024-03-07T08:40:12;4.30;99.90
52495;DHT22;38405;53.212;5.660;2024-03-07T08:42:46;4.30;99.90
52495;DHT22;38405;53.212;5.660;2024-03-07T08:45:12;4.30;99.90
52495;DHT22;38405;53.212;5.660;2024-03-07T08:47:43;4.30;99.90
52495;DHT22;38405;53.212;5.660;2024-03-07T08:50:09;4.30;99.90
52495;DHT22;38405;53.212;5.660;2024-03-07T08:52:36;4.30;99.90
52495;DHT22;38405;53.212;5.660;2024-03-07T08:55:02;4.40;99.90
52495;DHT22;38405;53.212;5.660;2024-03-07T08:57:28;4.40;99.90
52495;DHT22;38405;53.212;5.660;2024-03-07T08:59:54;4.40;99.90
52495;DHT22;38405;53.212;5.660;2024-03-07T09:02:19;4.40;99.90
52495;DHT22;38405;53.212;5.660;2024-03-07T09:04:45;4.30;99.90
52495;DHT22;38405;53.212;5.660;2024-03-07T09:07:11;4.30;99.90
52495;DHT22;38405;53.212;5.660;2024-03-07T09:09:38;4.30;99.90
52495;DHT22;38405;53.212;5.660;2024-03-07T09:12:04;4.30;99.90
52495;DHT22;38405;53.212;5.660;2024-03-07T09:14:30;4.40;99.90
52495;DHT22;38405;53.212;5.660;2024-03-07T09:16:56;4.40;99.90
52495;DHT22;38405;53.212;5.660;2024-03-07T09:19:23;4.40;99.90
52495;DHT22;38405;53.212;5.660;2024-03-07T09:21:53;4.40;99.90
52495;DHT22;38405;53.212;5.660;2024-03-07T09:24:19;4.50;99.90
52495;DHT22;38405;53.212;5.660;2024-03-07T09:26:52;4.40;99.90
52495;DHT22;38405;53.212;5.660;2024-03-07T09:29:19;4.40;99.90
52495;DHT22;38405;53.212;5.660;2024-03-07T09:31:45;4.50;99.90
52495;DHT22;38405;53.212;5.660;2024-03-07T09:34:12;4.50;99.90
52495;DHT22;38405;53.212;5.660;2024-03-07T09:36:41;4.50;99.90
52495;DHT22;38405;53.212;5.660;2024-03-07T09:39:08;4.40;99.90
52495;DHT22;38405;53.212;5.660;2024-03-07T09:41:38;4.40;99.90
52495;DHT22;38405;53.212;5.660;2024-03-07T09:44:05;4.40;99.90
52495;DHT22;38405;53.212;5.660;2024-03-07T09:46:31;4.50;99.90
52495;DHT22;38405;53.212;5.660;2024-03-07T09:49:00;4.50;99.90
52495;DHT22;38405;53.212;5.660;2024-03-07T09:51:27;4.60;99.90
52495;DHT22;38405;53.212;5.660;2024-03-07T09:53:56;4.50;99.90
52495;DHT22;38405;53.212;5.660;2024-03-07T09:56:25;4.80;99.90
52495;DHT22;38405;53.212;5.660;2024-03-07T09:58:54;5.10;99.90
52495;DHT22;38405;53.212;5.660;2024-03-07T10:01:21;5.30;99.90
52495;DHT22;38405;53.212;5.660;2024-03-07T10:03:55;5.40;99.90
52495;DHT22;38405;53.212;5.660;2024-03-07T10:06:23;5.60;99.90
52495;DHT22;38405;53.212;5.660;2024-03-07T10:08:50;5.50;99.90
52495;DHT22;38405;53.212;5.660;2024-03-07T10:11:15;5.60;99.90
52495;DHT22;38405;53.212;5.660;2024-03-07T10:13:41;5.60;99.90
52495;DHT22;38405;53.212;5.660;2024-03-07T10:16:07;6.10;99.90
52495;DHT22;38405;53.212;5.660;2024-03-07T10:18:41;6.10;99.90
52495;DHT22;38405;53.212;5.660;2024-03-07T10:21:06;6.50;99.90
52495;DHT22;38405;53.212;5.660;2024-03-07T10:23:32;6.30;99.90
52495;DHT22;38405;53.212;5.660;2024-03-07T10:25:59;6.50;99.90
52495;DHT22;38405;53.212;5.660;2024-03-07T10:28:26;6.40;99.90
52495;DHT22;38405;53.212;5.660;2024-03-07T10:30:53;5.80;99.90
52495;DHT22;38405;53.212;5.660;2024-03-07T10:33:21;5.60;99.90
52495;DHT22;38405;53.212;5.660;2024-03-07T10:35:49;5.80;99.90
52495;DHT22;38405;53.212;5.660;2024-03-07T10:38:15;5.40;99.90
52495;DHT22;38405;53.212;5.660;2024-03-07T10:40:40;5.30;99.90
52495;DHT22;38405;53.212;5.660;2024-03-07T10:43:10;5.10;99.90
52495;DHT22;38405;53.212;5.660;2024-03-07T10:45:47;5.10;99.90
52495;DHT22;38405;53.212;5.660;2024-03-07T10:48:16;5.00;99.90
52495;DHT22;38405;53.212;5.660;2024-03-07T10:53:19;5.10;99.90
52495;DHT22;38405;53.212;5.660;2024-03-07T10:56:02;5.10;99.90
52495;DHT22;38405;53.212;5.660;2024-03-07T10:58:38;5.30;99.90
52495;DHT22;38405;53.212;5.660;2024-03-07T11:01:09;5.30;99.90
52495;DHT22;38405;53.212;5.660;2024-03-07T11:03:36;5.30;99.90
52495;DHT22;38405;53.212;5.660;2024-03-07T11:06:02;5.20;99.90
52495;DHT22;38405;53.212;5.660;2024-03-07T11:08:33;5.10;99.90
52495;DHT22;38405;53.212;5.660;2024-03-07T11:11:00;5.10;99.90
52495;DHT22;38405;53.212;5.660;2024-03-07T11:13:26;5.00;99.90
52495;DHT22;38405;53.212;5.660;2024-03-07T11:15:53;5.00;99.90
52495;DHT22;38405;53.212;5.660;2024-03-07T11:18:23;5.60;99.90
52495;DHT22;38405;53.212;5.660;2024-03-07T11:20:49;5.20;99.90
52495;DHT22;38405;53.212;5.660;2024-03-07T11:23:34;5.00;99.90
52495;DHT22;38405;53.212;5.660;2024-03-07T11:26:08;5.00;99.90
52495;DHT22;38405;53.212;5.660;2024-03-07T11:28:35;4.80;99.90
52495;DHT22;38405;53.212;5.660;2024-03-07T11:31:34;4.80;99.90
52495;DHT22;38405;53.212;5.660;2024-03-07T11:34:12;4.90;99.90
52495;DHT22;38405;53.212;5.660;2024-03-07T11:36:42;4.90;99.90
52495;DHT22;38405;53.212;5.660;2024-03-07T11:39:47;5.10;99.90
52495;DHT22;38405;53.212;5.660;2024-03-07T11:42:28;5.30;99.90
52495;DHT22;38405;53.212;5.660;2024-03-07T11:44:56;5.40;99.90
52495;DHT22;38405;53.212;5.660;2024-03-07T11:47:26;5.70;99.90
52495;DHT22;38405;53.212;5.660;2024-03-07T11:49:55;6.00;99.90
52495;DHT22;38405;53.212;5.660;2024-03-07T11:52:24;6.20;99.90
52495;DHT22;38405;53.212;5.660;2024-03-07T11:54:49;6.30;99.90
52495;DHT22;38405;53.212;5.660;2024-03-07T11:57:20;6.50;99.90
52495;DHT22;38405;53.212;5.660;2024-03-07T11:59:52;6.50;99.90
52495;DHT22;38405;53.212;5.660;2024-03-07T12:02:19;6.30;99.90
52495;DHT22;38405;53.212;5.660;2024-03-07T12:04:50;6.20;99.90
52495;DHT22;38405;53.212;5.660;2024-03-07T12:07:16;6.10;99.90
52495;DHT22;38405;53.212;5.660;2024-03-07T12:09:49;6.70;99.90
52495;DHT22;38405;53.212;5.660;2024-03-07T12:12:16;6.40;99.90
52495;DHT22;38405;53.212;5.660;2024-03-07T12:14:43;6.60;99.90
52495;DHT22;38405;53.212;5.660;2024-03-07T12:17:09;6.70;99.90
52495;DHT22;38405;53.212;5.660;2024-03-07T12:19:35;6.50;99.90
52495;DHT22;38405;53.212;5.660;2024-03-07T12:22:02;6.40;99.90
52495;DHT22;38405;53.212;5.660;2024-03-07T12:24:31;6.20;99.90
52495;DHT22;38405;53.212;5.660;2024-03-07T12:27:10;6.30;99.90
52495;DHT22;38405;53.212;5.660;2024-03-07T12:29:38;6.40;99.90
52495;DHT22;38405;53.212;5.660;2024-03-07T12:32:07;6.30;99.90
52495;DHT22;38405;53.212;5.660;2024-03-07T12:34:43;6.30;99.90
52495;DHT22;38405;53.212;5.660;2024-03-07T12:37:14;6.50;99.90
52495;DHT22;38405;53.212;5.660;2024-03-07T12:39:43;6.50;99.90
52495;DHT22;38405;53.212;5.660;2024-03-07T12:42:13;6.50;99.90
52495;DHT22;38405;53.212;5.660;2024-03-07T12:44:44;6.60;99.90
52495;DHT22;38405;53.212;5.660;2024-03-07T12:47:16;6.90;99.90
52495;DHT22;38405;53.212;5.660;2024-03-07T12:49:45;6.90;99.90
52495;DHT22;38405;53.212;5.660;2024-03-07T12:52:11;6.90;99.90
52495;DHT22;38405;53.212;5.660;2024-03-07T12:54:41;6.80;99.90
52495;DHT22;38405;53.212;5.660;2024-03-07T12:57:10;6.70;99.90
52495;DHT22;38405;53.212;5.660;2024-03-07T12:59:38;6.50;99.90
52495;DHT22;38405;53.212;5.660;2024-03-07T13:02:12;6.30;99.90
52495;DHT22;38405;53.212;5.660;2024-03-07T13:04:38;6.00;99.90
52495;DHT22;38405;53.212;5.660;2024-03-07T13:07:06;6.00;99.90
52495;DHT22;38405;53.212;5.660;2024-03-07T13:09:36;6.20;99.90
52495;DHT22;38405;53.212;5.660;2024-03-07T13:12:03;6.10;99.90
52495;DHT22;38405;53.212;5.660;2024-03-07T13:14:33;6.10;99.90
52495;DHT22;38405;53.212;5.660;2024-03-07T13:16:59;6.30;99.90
52495;DHT22;38405;53.212;5.660;2024-03-07T13:19:30;6.20;99.90
52495;DHT22;38405;53.212;5.660;2024-03-07T13:21:56;6.40;99.90
52495;DHT22;38405;53.212;5.660;2024-03-07T13:24:26;6.50;99.90
52495;DHT22;38405;53.212;5.660;2024-03-07T13:26:52;6.60;99.90
52495;DHT22;38405;53.212;5.660;2024-03-07T13:29:19;6.80;99.90
52495;DHT22;38405;53.212;5.660;2024-03-07T13:31:51;7.00;99.90
52495;DHT22;38405;53.212;5.660;2024-03-07T13:34:17;7.10;99.90
52495;DHT22;38405;53.212;5.660;2024-03-07T13:36:44;7.20;99.90
52495;DHT22;38405;53.212;5.660;2024-03-07T13:39:11;7.00;99.90
52495;DHT22;38405;53.212;5.660;2024-03-07T13:41:42;6.90;99.90
52495;DHT22;38405;53.212;5.660;2024-03-07T13:44:08;6.80;99.90
52495;DHT22;38405;53.212;5.660;2024-03-07T13:46:34;6.80;99.90
52495;DHT22;38405;53.212;5.660;2024-03-07T13:49:01;6.90;99.90
52495;DHT22;38405;53.212;5.660;2024-03-07T13:51:36;7.20;99.90
52495;DHT22;38405;53.212;5.660;2024-03-07T13:54:02;7.30;99.90
52495;DHT22;38405;53.212;5.660;2024-03-07T14:00:00;7.10;99.90
52495;DHT22;38405;53.212;5.660;2024-03-07T14:02:59;6.80;99.90
52495;DHT22;38405;53.212;5.660;2024-03-07T14:14:58;6.40;99.90
52495;DHT22;38405;53.212;5.660;2024-03-07T14:17:43;6.40;99.90
52495;DHT22;38405;53.212;5.660;2024-03-07T14:23:59;6.30;99.90
52495;DHT22;38405;53.212;5.660;2024-03-07T14:26:45;6.30;99.90
52495;DHT22;38405;53.212;5.660;2024-03-07T14:29:31;6.30;99.90
52495;DHT22;38405;53.212;5.660;2024-03-07T14:32:04;6.30;99.90
52495;DHT22;38405;53.212;5.660;2024-03-07T14:34:45;6.20;99.90
52495;DHT22;38405;53.212;5.660;2024-03-07T14:37:28;6.30;99.90
52495;DHT22;38405;53.212;5.660;2024-03-07T14:40:09;6.30;99.90
52495;DHT22;38405;53.212;5.660;2024-03-07T14:42:44;6.30;99.90
52495;DHT22;38405;53.212;5.660;2024-03-07T14:45:15;6.40;99.90
52495;DHT22;38405;53.212;5.660;2024-03-07T14:47:45;6.30;99.90
52495;DHT22;38405;53.212;5.660;2024-03-07T14:50:12;6.40;99.90
52495;DHT22;38405;53.212;5.660;2024-03-07T14:52:44;6.30;99.90
52495;DHT22;38405;53.212;5.660;2024-03-07T14:55:11;6.30;99.90
52495;DHT22;38405;53.212;5.660;2024-03-07T14:57:40;6.30;99.90
52495;DHT22;38405;53.212;5.660;2024-03-07T15:00:08;6.30;99.90
52495;DHT22;38405;53.212;5.660;2024-03-07T15:02:48;6.30;99.90
52495;DHT22;38405;53.212;5.660;2024-03-07T15:05:17;6.30;99.90
52495;DHT22;38405;53.212;5.660;2024-03-07T15:07:47;6.30;99.90
52495;DHT22;38405;53.212;5.660;2024-03-07T15:10:22;6.30;99.90
52495;DHT22;38405;53.212;5.660;2024-03-07T15:12:52;6.30;99.90
52495;DHT22;38405;53.212;5.660;2024-03-07T15:15:18;6.30;99.90
52495;DHT22;38405;53.212;5.660;2024-03-07T15:17:45;6.30;99.90
52495;DHT22;38405;53.212;5.660;2024-03-07T15:20:14;6.30;99.90
52495;DHT22;38405;53.212;5.660;2024-03-07T15:23:06;6.20;99.90
52495;DHT22;38405;53.212;5.660;2024-03-07T15:25:32;6.20;99.90
52495;DHT22;38405;53.212;5.660;2024-03-07T15:27:58;6.30;99.90
52495;DHT22;38405;53.212;5.660;2024-03-07T15:30:25;6.30;99.90
52495;DHT22;38405;53.212;5.660;2024-03-07T15:32:58;6.20;99.90
52495;DHT22;38405;53.212;5.660;2024-03-07T15:35:27;6.20;99.90
52495;DHT22;38405;53.212;5.660;2024-03-07T15:37:53;6.20;99.90
52495;DHT22;38405;53.212;5.660;2024-03-07T15:40:20;6.20;99.90
52495;DHT22;38405;53.212;5.660;2024-03-07T15:42:55;6.20;99.90
52495;DHT22;38405;53.212;5.660;2024-03-07T15:45:27;6.10;99.90
52495;DHT22;38405;53.212;5.660;2024-03-07T15:47:59;6.10;99.90
52495;DHT22;38405;53.212;5.660;2024-03-07T15:50:26;6.10;99.90
52495;DHT22;38405;53.212;5.660;2024-03-07T15:52:56;6.00;99.90
52495;DHT22;38405;53.212;5.660;2024-03-07T15:55:23;6.10;99.90
52495;DHT22;38405;53.212;5.660;2024-03-07T15:57:56;6.10;99.90
52495;DHT22;38405;53.212;5.660;2024-03-07T16:00:27;6.00;99.90
52495;DHT22;38405;53.212;5.660;2024-03-07T16:03:00;6.00;99.90
52495;DHT22;38405;53.212;5.660;2024-03-07T16:05:27;6.00;99.90
52495;DHT22;38405;53.212;5.660;2024-03-07T16:07:57;6.00;99.90
52495;DHT22;38405;53.212;5.660;2024-03-07T16:10:25;6.00;99.90